Terminal Aerodrome Forecast
Issued by NWS

Home | Current Version | Previous Version | Text Only | Print | Product List | Glossary On
Versions: 1 2 3 4 5 6 7 8 9 10 11 12 13 14 15 16
000
FTUS44 KLZK 270500
TAFBPK
TAF
KBPK 270531Z 2706/2806 16004KT 4SM -DZ BR VCSH BKN008 OVC015
      WS020/19045KT
      TEMPO 2706/2710 1SM BR OVC005
     FM271000 VRB05KT 5SM -RADZ OVC008
      TEMPO 2711/2715 1SM BR OVC004
     FM271500 32007KT P6SM VCSH OVC012
     FM272200 35005KT P6SM BKN025 OVC050=

USA.gov is the U.S. government's official web portal to all federal, state and local government web resources and services.